Time;durP1;ratioP1;P1;durP2;ratioP2;P2;SDS_P1;SDS_P2;PMS_P1;PMS_P2;Temp;Humidity;BMP_temperature;BMP_pressure;BME280_temperature;BME280_humidity;BME280_pressure;Samples;Min_cycle;Max_cycle;Signal;HPM_P1;HPM_P2
2022/07/06 00:01:40;;;;;;;0.90;0.80;;;19.40;88.20;;;;;;4991856;28;20226;-86
2022/07/06 00:04:06;;;;;;;1.00;0.90;;;19.30;89.20;;;;;;4991903;28;20316;-86
2022/07/06 00:06:32;;;;;;;0.90;0.80;;;19.30;90.20;;;;;;4992531;28;20657;-86
2022/07/06 00:08:58;;;;;;;1.10;1.00;;;19.20;90.80;;;;;;4992065;28;20633;-87
2022/07/06 00:11:23;;;;;;;1.00;0.90;;;19.20;91.00;;;;;;4992470;28;20455;-87
2022/07/06 00:13:50;;;;;;;0.90;0.80;;;19.10;91.20;;;;;;4991959;28;20196;-86
2022/07/06 00:16:17;;;;;;;1.10;1.00;;;19.10;91.10;;;;;;4992603;28;20178;-87
2022/07/06 00:18:42;;;;;;;1.30;1.20;;;19.00;91.40;;;;;;4991755;28;20448;-87
2022/07/06 00:21:08;;;;;;;0.80;0.80;;;19.00;91.30;;;;;;4988525;28;20572;-86
2022/07/06 00:23:34;;;;;;;1.10;1.00;;;19.00;90.30;;;;;;4987133;28;20236;-87
2022/07/06 00:25:59;;;;;;;0.83;0.77;;;19.00;89.40;;;;;;4993356;28;20190;-87
2022/07/06 00:28:25;;;;;;;0.90;0.80;;;18.90;89.00;;;;;;4992114;28;20290;-87
2022/07/06 00:30:51;;;;;;;0.90;0.80;;;19.00;89.00;;;;;;4991999;28;20197;-86
2022/07/06 00:33:17;;;;;;;0.70;0.70;;;19.00;88.70;;;;;;4991719;28;20188;-87
2022/07/06 00:35:42;;;;;;;1.10;1.00;;;18.90;87.60;;;;;;4991401;28;20492;-87
2022/07/06 00:38:08;;;;;;;1.00;0.90;;;18.90;87.60;;;;;;4991894;28;20206;-87
2022/07/06 00:40:33;;;;;;;1.00;0.90;;;18.90;88.00;;;;;;4991896;28;20236;-87
2022/07/06 00:42:59;;;;;;;0.90;0.80;;;18.80;88.10;;;;;;4991280;28;20285;-87
2022/07/06 00:45:25;;;;;;;1.13;1.00;;;18.80;87.50;;;;;;4991637;28;20201;-86
2022/07/06 00:47:50;;;;;;;0.93;0.87;;;18.80;87.00;;;;;;4990753;28;20252;-86
2022/07/06 00:50:20;;;;;;;1.10;1.00;;;18.80;87.00;;;;;;4991840;28;20201;-86
2022/07/06 00:52:55;;;;;;;1.00;0.90;;;18.80;86.80;;;;;;4990800;28;20218;-86
2022/07/06 00:55:26;;;;;;;1.07;1.00;;;18.80;86.50;;;;;;4991401;28;20455;-86
2022/07/06 00:57:52;;;;;;;1.00;0.90;;;18.70;86.20;;;;;;4977538;28;20444;-86
2022/07/06 01:00:21;;;;;;;0.93;0.83;;;18.70;86.20;;;;;;4990892;28;20436;-85
2022/07/06 01:02:47;;;;;;;1.00;0.90;;;18.60;86.40;;;;;;4989523;28;20921;-85
2022/07/06 01:05:15;;;;;;;1.00;0.90;;;18.60;86.50;;;;;;4992402;28;20457;-84
2022/07/06 01:07:42;;;;;;;1.77;1.00;;;18.50;86.40;;;;;;4990740;28;20448;-86
2022/07/06 01:10:10;;;;;;;1.10;1.00;;;18.50;86.50;;;;;;4990804;28;20409;-87
2022/07/06 01:12:36;;;;;;;1.00;0.90;;;18.50;86.60;;;;;;4992214;28;20512;-85
2022/07/06 01:15:08;;;;;;;1.00;0.90;;;18.40;86.70;;;;;;4990804;28;20428;-86
2022/07/06 01:17:34;;;;;;;1.40;1.30;;;18.40;86.80;;;;;;4990451;28;20480;-86
2022/07/06 01:20:16;;;;;;;1.13;1.10;;;18.40;87.10;;;;;;4991161;28;20465;-86
2022/07/06 01:22:43;;;;;;;1.10;1.10;;;18.30;87.40;;;;;;4990339;28;20186;-85
2022/07/06 01:25:09;;;;;;;1.10;1.00;;;18.30;87.40;;;;;;4989874;28;20464;-85
2022/07/06 01:27:38;;;;;;;1.00;0.90;;;18.30;87.30;;;;;;4990294;28;20471;-85
2022/07/06 01:30:15;;;;;;;1.13;1.03;;;18.30;87.10;;;;;;4990327;28;20499;-85
2022/07/06 01:32:41;;;;;;;1.00;0.90;;;18.20;87.30;;;;;;4999566;28;20866;-85
2022/07/06 01:35:09;;;;;;;2.20;1.03;;;18.20;87.50;;;;;;5000806;28;20436;-84
2022/07/06 01:37:35;;;;;;;1.10;1.10;;;18.10;87.40;;;;;;5000873;28;20440;-85
2022/07/06 01:40:02;;;;;;;0.80;0.80;;;18.10;87.40;;;;;;4999832;28;20969;-85
2022/07/06 01:42:28;;;;;;;1.10;1.00;;;18.00;87.50;;;;;;4993962;28;20417;-87
2022/07/06 01:44:54;;;;;;;1.10;1.00;;;17.90;87.70;;;;;;4989238;28;20468;-87
2022/07/06 01:47:20;;;;;;;1.30;1.20;;;17.80;87.80;;;;;;4995105;28;20205;-86
2022/07/06 01:49:46;;;;;;;1.00;0.90;;;17.80;87.90;;;;;;4994202;28;20429;-85
2022/07/06 01:52:11;;;;;;;1.00;0.90;;;17.70;87.90;;;;;;4996234;28;20483;-86
2022/07/06 01:54:37;;;;;;;1.77;1.60;;;17.60;88.10;;;;;;4994554;28;20201;-87
2022/07/06 01:57:03;;;;;;;1.40;1.30;;;17.60;88.30;;;;;;4995002;28;20250;-87
2022/07/06 01:59:29;;;;;;;1.10;1.10;;;17.50;88.60;;;;;;4993992;28;20185;-85
2022/07/06 02:01:54;;;;;;;1.53;1.43;;;17.40;88.80;;;;;;4994128;28;20232;-85
2022/07/06 02:04:20;;;;;;;3.20;2.07;;;17.40;89.00;;;;;;4994955;28;20198;-85
2022/07/06 02:06:46;;;;;;;1.00;0.90;;;17.40;89.10;;;;;;4994326;28;20644;-85
2022/07/06 02:09:11;;;;;;;1.57;1.10;;;17.30;89.10;;;;;;4993045;28;20181;-85
2022/07/06 02:11:37;;;;;;;1.00;0.90;;;17.20;89.20;;;;;;4993707;28;20664;-85
2022/07/06 02:14:02;;;;;;;0.80;0.80;;;17.20;89.30;;;;;;4994344;28;20188;-86
2022/07/06 02:16:28;;;;;;;1.20;1.10;;;17.20;89.60;;;;;;4994160;28;20188;-85
2022/07/06 02:18:53;;;;;;;1.17;1.07;;;17.10;89.80;;;;;;4994832;28;20244;-86
2022/07/06 02:21:19;;;;;;;1.00;0.87;;;17.10;89.80;;;;;;4994634;28;20571;-86
2022/07/06 02:23:45;;;;;;;1.10;1.00;;;17.00;90.00;;;;;;4982929;28;20627;-85
2022/07/06 02:26:10;;;;;;;1.10;1.00;;;17.00;90.30;;;;;;4991770;28;20244;-86
2022/07/06 02:28:36;;;;;;;1.10;1.00;;;17.00;90.50;;;;;;4994087;28;20285;-84
2022/07/06 02:31:02;;;;;;;1.17;1.07;;;17.00;90.60;;;;;;4993590;28;20554;-84
2022/07/06 02:33:27;;;;;;;1.10;1.00;;;16.90;90.70;;;;;;4993463;28;20574;-84
2022/07/06 02:35:53;;;;;;;1.10;1.00;;;16.90;90.90;;;;;;4993840;28;20552;-85
2022/07/06 02:38:18;;;;;;;1.10;1.00;;;16.90;91.00;;;;;;4981789;28;20229;-85
2022/07/06 02:40:44;;;;;;;1.27;1.17;;;16.90;91.10;;;;;;4995568;28;20182;-86
2022/07/06 02:43:10;;;;;;;1.30;1.20;;;16.80;91.30;;;;;;4995884;28;20201;-85
2022/07/06 02:45:36;;;;;;;1.20;1.10;;;16.80;91.00;;;;;;4988890;28;20249;-86
2022/07/06 02:48:02;;;;;;;1.40;1.30;;;16.80;91.30;;;;;;4990318;28;20578;-85
2022/07/06 02:50:27;;;;;;;1.00;0.90;;;16.80;91.40;;;;;;4996400;28;20435;-85
2022/07/06 02:52:54;;;;;;;1.20;1.10;;;16.80;91.70;;;;;;4995740;28;20429;-85
2022/07/06 02:55:20;;;;;;;1.20;1.10;;;16.80;91.60;;;;;;4992972;28;20217;-85
2022/07/06 02:57:46;;;;;;;1.00;0.90;;;16.80;91.80;;;;;;4992426;28;20535;-85
2022/07/06 03:00:11;;;;;;;1.10;1.00;;;16.70;91.70;;;;;;4993466;28;20365;-85
2022/07/06 03:02:37;;;;;;;1.00;0.90;;;16.70;91.90;;;;;;4993123;28;20636;-83
2022/07/06 03:05:03;;;;;;;1.20;1.10;;;16.70;92.10;;;;;;4994788;28;20205;-85
2022/07/06 03:07:29;;;;;;;1.30;1.20;;;16.70;92.20;;;;;;4993007;28;20289;-84
2022/07/06 03:09:54;;;;;;;1.10;1.00;;;16.60;92.30;;;;;;4993164;28;20867;-87
2022/07/06 03:12:20;;;;;;;1.10;1.10;;;16.60;92.40;;;;;;4993048;28;20182;-85
2022/07/06 03:14:45;;;;;;;1.30;1.20;;;16.60;92.70;;;;;;4994377;28;20600;-86
2022/07/06 03:17:11;;;;;;;1.10;1.00;;;16.50;92.70;;;;;;4993208;28;20698;-85
2022/07/06 03:19:37;;;;;;;1.00;0.90;;;16.50;92.90;;;;;;4992994;28;20185;-86
2022/07/06 03:22:03;;;;;;;1.00;0.90;;;16.50;92.90;;;;;;4980871;28;20213;-86
2022/07/06 03:24:28;;;;;;;0.90;0.90;;;16.50;93.00;;;;;;4992819;28;20193;-86
2022/07/06 03:26:54;;;;;;;2.03;1.20;;;16.50;93.20;;;;;;4993365;28;20182;-87
2022/07/06 03:29:20;;;;;;;1.83;1.47;;;16.50;93.30;;;;;;4979496;28;20178;-86
2022/07/06 03:31:46;;;;;;;4.03;3.80;;;16.50;93.40;;;;;;4993138;28;20232;-86
2022/07/06 03:34:11;;;;;;;1.07;0.97;;;16.50;93.40;;;;;;4992233;28;20935;-87
2022/07/06 03:36:37;;;;;;;1.20;1.10;;;16.50;93.60;;;;;;4980140;28;20186;-87
2022/07/06 03:39:03;;;;;;;1.33;1.20;;;16.40;93.80;;;;;;4983121;28;20710;-86
2022/07/06 03:41:28;;;;;;;1.00;1.00;;;16.40;93.90;;;;;;4993549;28;20435;-86
2022/07/06 03:43:54;;;;;;;1.23;1.07;;;16.40;94.00;;;;;;4994471;28;20347;-83
2022/07/06 03:46:20;;;;;;;1.43;1.37;;;16.40;94.00;;;;;;4997380;28;20232;-85
2022/07/06 03:48:45;;;;;;;3.23;1.40;;;16.40;94.10;;;;;;4993737;28;20210;-85
2022/07/06 03:51:11;;;;;;;1.00;0.90;;;16.40;94.20;;;;;;5000819;28;20188;-84
2022/07/06 03:53:37;;;;;;;1.20;1.10;;;16.40;94.30;;;;;;4987115;28;20273;-85
2022/07/06 03:58:51;;;;;;;1.10;1.00;;;16.40;94.40;;;;;;4995852;28;20463;-86
2022/07/06 04:01:16;;;;;;;1.00;1.00;;;16.40;94.40;;;;;;4992244;28;20484;-84
2022/07/06 04:03:44;;;;;;;1.00;0.90;;;16.50;94.30;;;;;;4992242;28;20448;-86
2022/07/06 04:06:10;;;;;;;1.10;1.00;;;16.50;94.20;;;;;;4991747;28;20213;-86
2022/07/06 04:08:36;;;;;;;1.10;1.00;;;16.50;94.30;;;;;;4993029;28;20445;-85
2022/07/06 04:11:02;;;;;;;1.10;1.00;;;16.50;94.10;;;;;;4998889;28;20174;-83
2022/07/06 04:13:28;;;;;;;1.63;1.00;;;16.50;94.10;;;;;;4999589;28;20208;-84
2022/07/06 04:15:55;;;;;;;0.73;0.73;;;16.50;94.30;;;;;;4999369;28;20426;-84
2022/07/06 04:18:20;;;;;;;0.93;0.87;;;16.50;94.30;;;;;;5001088;28;20229;-86
2022/07/06 04:20:46;;;;;;;1.00;0.90;;;16.60;94.30;;;;;;4992325;28;20482;-85
2022/07/06 04:23:12;;;;;;;1.03;0.93;;;16.60;93.70;;;;;;4991880;28;20196;-85
2022/07/06 04:25:37;;;;;;;1.00;0.90;;;16.60;93.60;;;;;;4990937;28;20312;-85
2022/07/06 04:28:03;;;;;;;1.10;1.00;;;16.60;93.90;;;;;;4991250;28;20206;-84
2022/07/06 04:30:29;;;;;;;1.10;1.00;;;16.60;93.70;;;;;;4978657;28;20239;-85
2022/07/06 04:32:55;;;;;;;1.07;0.97;;;16.60;93.80;;;;;;4991471;28;20504;-85
2022/07/06 04:35:21;;;;;;;1.03;0.93;;;16.60;93.90;;;;;;4991297;28;20198;-84
2022/07/06 04:37:46;;;;;;;1.00;0.90;;;16.70;93.80;;;;;;4990913;28;20252;-84
2022/07/06 04:40:12;;;;;;;1.20;1.13;;;16.70;93.90;;;;;;4990638;28;20570;-84
2022/07/06 04:42:38;;;;;;;1.10;1.00;;;16.70;93.50;;;;;;4991503;28;20181;-86
2022/07/06 04:45:05;;;;;;;1.20;1.10;;;16.60;93.20;;;;;;4978818;28;20468;-85
2022/07/06 04:47:30;;;;;;;1.00;0.90;;;16.60;93.60;;;;;;4991439;28;20236;-85
2022/07/06 04:49:57;;;;;;;1.33;1.20;;;16.60;93.80;;;;;;4992976;28;20844;-84
2022/07/06 04:52:22;;;;;;;1.10;1.00;;;16.60;93.90;;;;;;4990862;28;20192;-84
2022/07/06 04:54:48;;;;;;;1.10;1.00;;;16.60;94.00;;;;;;4977969;28;20484;-84
2022/07/06 04:57:14;;;;;;;1.10;1.00;;;16.70;94.50;;;;;;4989878;28;20245;-83
2022/07/06 04:59:39;;;;;;;1.17;1.07;;;16.70;94.50;;;;;;4990744;28;20706;-83
2022/07/06 05:02:05;;;;;;;1.10;1.00;;;16.80;94.70;;;;;;4990158;28;20241;-82
2022/07/06 05:04:30;;;;;;;0.93;0.90;;;16.80;94.70;;;;;;4990218;28;20200;-83
2022/07/06 05:06:56;;;;;;;1.10;1.00;;;16.80;94.30;;;;;;4990470;28;20648;-84
2022/07/06 05:09:22;;;;;;;0.90;0.80;;;16.80;94.70;;;;;;4991054;28;20177;-84
2022/07/06 05:11:47;;;;;;;1.03;0.97;;;16.80;94.70;;;;;;4990249;28;20643;-84
2022/07/06 05:14:13;;;;;;;1.67;1.10;;;16.80;94.70;;;;;;4989533;28;20554;-85
2022/07/06 05:16:38;;;;;;;1.20;1.10;;;16.80;94.60;;;;;;4978918;28;20188;-84
2022/07/06 05:19:04;;;;;;;2.30;1.00;;;16.80;94.40;;;;;;4990467;28;20245;-84
2022/07/06 05:21:30;;;;;;;1.00;0.90;;;16.90;93.80;;;;;;4989869;28;20185;-84
2022/07/06 05:23:55;;;;;;;0.83;0.80;;;16.90;94.00;;;;;;4990291;28;20205;-84
2022/07/06 05:26:21;;;;;;;1.00;0.90;;;16.90;93.80;;;;;;4989898;28;20268;-84
2022/07/06 05:28:46;;;;;;;1.00;0.90;;;16.90;93.70;;;;;;4990188;28;20202;-84
2022/07/06 05:31:12;;;;;;;1.00;0.90;;;16.90;93.60;;;;;;4990657;28;20204;-85
2022/07/06 05:33:38;;;;;;;1.00;0.90;;;16.90;93.50;;;;;;4990645;28;21806;-85
2022/07/06 05:36:03;;;;;;;1.10;1.00;;;16.90;93.60;;;;;;4990911;28;20185;-85
2022/07/06 05:38:29;;;;;;;0.87;0.83;;;16.90;93.40;;;;;;4990452;28;20237;-83
2022/07/06 05:40:55;;;;;;;1.47;1.37;;;17.00;93.60;;;;;;4991125;28;20459;-84
2022/07/06 05:43:21;;;;;;;1.10;1.00;;;17.00;93.50;;;;;;4991258;28;20186;-86
2022/07/06 05:45:46;;;;;;;1.10;1.00;;;17.00;93.50;;;;;;4992220;28;20206;-86
2022/07/06 05:51:00;;;;;;;1.10;1.00;;;17.10;93.10;;;;;;4992054;28;20196;-84
2022/07/06 05:53:28;;;;;;;1.10;1.00;;;17.10;92.90;;;;;;4989182;28;20877;-83
2022/07/06 05:55:57;;;;;;;0.80;0.80;;;17.10;92.70;;;;;;4984791;28;20224;-84
2022/07/06 05:58:57;;;;;;;1.00;0.90;;;17.10;92.70;;;;;;4990979;28;20451;-83
2022/07/06 06:01:23;;;;;;;1.20;1.10;;;17.10;92.70;;;;;;4994919;28;20632;-84
2022/07/06 06:03:48;;;;;;;1.07;1.00;;;17.10;92.20;;;;;;4992724;28;20942;-85
2022/07/06 06:06:14;;;;;;;0.87;0.80;;;17.10;91.60;;;;;;4985234;28;20166;-85
2022/07/06 06:08:39;;;;;;;0.80;0.80;;;17.10;91.80;;;;;;4994500;28;20205;-85
2022/07/06 06:11:05;;;;;;;1.00;0.90;;;17.10;91.60;;;;;;4994624;28;20652;-85
2022/07/06 06:13:31;;;;;;;1.00;0.90;;;17.10;91.30;;;;;;4997973;28;20435;-84
2022/07/06 06:15:56;;;;;;;0.90;0.80;;;17.20;91.20;;;;;;5002977;28;20185;-85
2022/07/06 06:18:22;;;;;;;1.00;0.90;;;17.20;90.40;;;;;;4998526;28;20241;-84
2022/07/06 06:20:50;;;;;;;1.00;0.90;;;17.30;89.70;;;;;;5016303;28;20211;-84
2022/07/06 06:23:15;;;;;;;1.00;0.90;;;17.30;89.50;;;;;;4995234;28;20671;-85
2022/07/06 06:25:41;;;;;;;0.90;0.83;;;17.30;89.10;;;;;;5006604;28;20459;-85
2022/07/06 06:28:09;;;;;;;1.20;1.10;;;17.40;88.70;;;;;;5006323;28;20645;-87
2022/07/06 06:30:35;;;;;;;0.90;0.80;;;17.40;88.70;;;;;;4994584;28;20611;-84
2022/07/06 06:33:11;;;;;;;0.90;0.80;;;17.50;89.00;;;;;;5005443;28;20916;-84
2022/07/06 06:35:37;;;;;;;1.00;0.90;;;17.50;89.00;;;;;;5002034;28;20509;-85
2022/07/06 06:38:03;;;;;;;0.80;0.80;;;17.50;89.10;;;;;;5001628;28;20447;-84
2022/07/06 06:40:29;;;;;;;0.80;0.80;;;17.50;89.40;;;;;;4998614;28;20435;-83
2022/07/06 06:42:54;;;;;;;1.83;1.17;;;17.60;89.80;;;;;;4998543;28;20248;-83
2022/07/06 06:45:20;;;;;;;1.00;0.90;;;17.60;90.10;;;;;;4991021;28;20209;-84
2022/07/06 06:47:46;;;;;;;0.87;0.80;;;17.60;89.80;;;;;;4999400;28;20216;-85
2022/07/06 06:50:14;;;;;;;0.97;0.93;;;17.60;90.10;;;;;;4997737;28;20435;-84
2022/07/06 06:52:40;;;;;;;0.90;0.80;;;17.70;89.80;;;;;;4998096;28;20352;-85
2022/07/06 06:55:06;;;;;;;1.30;1.20;;;17.70;89.90;;;;;;4997317;28;20435;-84
2022/07/06 06:57:33;;;;;;;2.00;0.90;;;17.70;89.50;;;;;;4997222;28;20204;-84
2022/07/06 06:59:59;;;;;;;0.83;0.77;;;17.80;89.00;;;;;;4996357;28;20950;-84
2022/07/06 07:02:25;;;;;;;1.00;0.90;;;17.80;88.20;;;;;;4991882;28;20496;-84
2022/07/06 07:04:51;;;;;;;0.90;0.80;;;17.90;88.00;;;;;;4992656;28;20204;-83
2022/07/06 07:07:16;;;;;;;0.97;0.93;;;17.90;87.90;;;;;;4992210;28;20198;-84
2022/07/06 07:09:45;;;;;;;0.80;0.80;;;18.00;87.70;;;;;;4992360;28;20170;-84
2022/07/06 07:12:11;;;;;;;1.00;0.90;;;18.00;86.70;;;;;;4992437;28;20178;-84
2022/07/06 07:14:37;;;;;;;0.90;0.80;;;18.00;86.20;;;;;;4992519;28;20425;-84
2022/07/06 07:17:05;;;;;;;1.10;1.00;;;18.00;86.20;;;;;;4992737;28;20433;-84
2022/07/06 07:19:30;;;;;;;1.77;1.67;;;18.00;86.50;;;;;;4992575;28;20655;-84
2022/07/06 07:21:56;;;;;;;1.20;1.10;;;18.10;85.70;;;;;;4992555;28;20448;-83
2022/07/06 07:24:21;;;;;;;1.00;0.90;;;18.10;85.10;;;;;;4992749;28;20202;-84
2022/07/06 07:26:47;;;;;;;0.90;0.80;;;18.10;85.60;;;;;;4992889;28;20285;-83
2022/07/06 07:29:13;;;;;;;0.90;0.80;;;18.20;85.50;;;;;;4992804;28;20265;-84
2022/07/06 07:31:39;;;;;;;1.00;0.90;;;18.30;85.40;;;;;;4994187;28;20182;-84
2022/07/06 07:34:05;;;;;;;0.90;0.80;;;18.30;86.20;;;;;;4992462;28;20590;-84
2022/07/06 07:36:30;;;;;;;0.83;0.80;;;18.30;85.90;;;;;;4992476;28;20561;-84
2022/07/06 07:38:56;;;;;;;1.00;0.90;;;18.30;86.40;;;;;;4992225;28;20202;-82
2022/07/06 07:41:21;;;;;;;2.10;1.17;;;18.40;86.00;;;;;;4992391;28;20174;-84
2022/07/06 07:43:47;;;;;;;1.00;0.90;;;18.40;86.10;;;;;;4991894;28;20268;-84
2022/07/06 07:46:13;;;;;;;0.90;0.80;;;18.50;86.40;;;;;;4990509;28;20221;-84
2022/07/06 07:48:38;;;;;;;0.90;0.80;;;18.50;85.40;;;;;;4990350;28;20198;-83
2022/07/06 07:51:04;;;;;;;1.00;0.90;;;18.50;85.30;;;;;;4993866;28;20190;-81
2022/07/06 07:53:29;;;;;;;1.10;1.00;;;18.50;84.80;;;;;;4993833;28;20201;-83
2022/07/06 07:55:55;;;;;;;1.07;1.00;;;18.50;84.60;;;;;;4994124;28;20181;-82
2022/07/06 07:58:20;;;;;;;1.10;1.00;;;18.40;83.80;;;;;;4995008;28;20244;-81
2022/07/06 08:00:46;;;;;;;0.93;0.87;;;18.40;84.30;;;;;;4994663;28;20368;-83
2022/07/06 08:03:12;;;;;;;1.00;0.90;;;18.40;84.00;;;;;;4995901;28;20196;-82
2022/07/06 08:05:37;;;;;;;3.23;1.10;;;18.50;84.80;;;;;;4997336;28;20220;-82
2022/07/06 08:08:04;;;;;;;0.90;0.80;;;18.60;84.80;;;;;;4996984;28;20197;-82
2022/07/06 08:10:30;;;;;;;1.27;1.17;;;18.70;85.40;;;;;;4994876;28;20188;-83
2022/07/06 08:12:55;;;;;;;1.07;0.97;;;18.70;84.60;;;;;;4995113;28;20416;-83
2022/07/06 08:15:21;;;;;;;1.13;1.03;;;18.80;84.20;;;;;;5012020;28;20470;-84
2022/07/06 08:17:46;;;;;;;3.03;1.20;;;18.90;84.70;;;;;;4994640;28;20201;-83
2022/07/06 08:20:12;;;;;;;1.63;1.13;;;19.00;84.90;;;;;;4995216;28;20177;-84
2022/07/06 08:22:38;;;;;;;1.00;0.90;;;19.00;83.40;;;;;;4994909;28;20658;-84
2022/07/06 08:25:05;;;;;;;1.00;0.90;;;19.00;83.90;;;;;;4994925;28;20227;-84
2022/07/06 08:27:30;;;;;;;0.97;0.87;;;19.10;84.10;;;;;;5011911;28;20201;-83
2022/07/06 08:29:56;;;;;;;0.90;0.80;;;19.10;83.40;;;;;;4994589;28;20466;-83
2022/07/06 08:32:22;;;;;;;0.83;0.80;;;19.20;82.00;;;;;;4994961;28;20177;-84
2022/07/06 08:34:47;;;;;;;1.03;0.93;;;19.30;81.80;;;;;;4994479;28;20181;-82
2022/07/06 08:37:13;;;;;;;0.90;0.90;;;19.40;81.40;;;;;;4994785;28;20224;-83
2022/07/06 08:39:39;;;;;;;0.93;0.90;;;19.40;81.60;;;;;;4993935;28;20247;-81
2022/07/06 08:42:07;;;;;;;1.00;0.90;;;19.40;81.30;;;;;;5012161;28;20571;-84
2022/07/06 08:44:34;;;;;;;1.03;0.97;;;19.40;80.00;;;;;;4994134;28;20204;-83
2022/07/06 08:47:04;;;;;;;1.10;1.00;;;19.30;80.30;;;;;;5011516;28;20408;-82
2022/07/06 08:49:32;;;;;;;0.90;0.80;;;19.30;81.10;;;;;;5012308;28;20640;-82
2022/07/06 08:51:57;;;;;;;1.00;0.93;;;19.30;80.70;;;;;;4989059;28;21037;-83
2022/07/06 08:54:24;;;;;;;0.67;0.60;;;19.30;80.80;;;;;;5002394;28;20500;-83
2022/07/06 08:56:50;;;;;;;0.90;0.80;;;19.40;80.50;;;;;;5002822;28;20198;-83
2022/07/06 08:59:16;;;;;;;0.90;0.90;;;19.50;80.80;;;;;;4990926;28;20860;-83
2022/07/06 09:01:44;;;;;;;0.77;0.73;;;19.60;79.90;;;;;;4987683;28;20470;-83
2022/07/06 09:04:12;;;;;;;0.93;0.80;;;19.50;80.00;;;;;;4983802;28;21022;-82
2022/07/06 09:06:42;;;;;;;1.00;0.90;;;19.50;80.00;;;;;;4991337;28;20425;-82
2022/07/06 09:09:09;;;;;;;0.90;0.80;;;19.50;80.70;;;;;;4995277;28;20424;-82
2022/07/06 09:11:35;;;;;;;0.90;0.80;;;19.60;80.70;;;;;;4994131;28;20481;-83
2022/07/06 09:14:01;;;;;;;0.90;0.80;;;19.60;79.60;;;;;;4990293;28;20478;-82
2022/07/06 09:16:28;;;;;;;0.90;0.80;;;19.60;79.00;;;;;;4990707;28;20417;-83
2022/07/06 09:18:54;;;;;;;1.37;1.20;;;19.60;79.00;;;;;;4992109;28;20616;-83
2022/07/06 09:21:31;;;;;;;1.00;0.90;;;19.50;78.80;;;;;;4990733;28;20424;-83
2022/07/06 09:23:58;;;;;;;0.80;0.80;;;19.50;78.90;;;;;;4990223;28;20177;-83
2022/07/06 09:26:24;;;;;;;0.97;0.87;;;19.60;79.70;;;;;;4990729;28;20548;-83
2022/07/06 09:28:51;;;;;;;0.90;0.80;;;19.70;79.70;;;;;;4992838;28;20444;-83
2022/07/06 09:31:16;;;;;;;1.37;1.27;;;19.90;78.60;;;;;;4993518;28;20770;-83
2022/07/06 09:34:06;;;;;;;0.90;0.73;;;20.10;77.10;;;;;;4991764;28;20421;-83
2022/07/06 09:36:44;;;;;;;0.90;0.80;;;20.20;77.40;;;;;;4992456;28;20264;-83
2022/07/06 09:39:25;;;;;;;0.80;0.80;;;20.20;76.30;;;;;;4993470;28;20435;-82
2022/07/06 09:41:56;;;;;;;0.90;0.80;;;20.20;76.80;;;;;;4993627;28;20436;-83
2022/07/06 09:44:31;;;;;;;0.83;0.83;;;20.20;76.60;;;;;;4982085;28;20550;-83
2022/07/06 09:46:58;;;;;;;1.00;0.90;;;20.20;77.10;;;;;;4994559;28;20416;-83
2022/07/06 09:49:24;;;;;;;0.70;0.70;;;20.30;76.50;;;;;;4994072;28;20460;-83
2022/07/06 09:52:01;;;;;;;0.90;0.80;;;20.30;77.40;;;;;;4993729;28;20529;-83
2022/07/06 09:54:27;;;;;;;0.90;0.80;;;20.30;76.40;;;;;;4993193;28;20798;-81
2022/07/06 09:56:54;;;;;;;0.70;0.70;;;20.30;76.20;;;;;;4994532;28;20433;-82
2022/07/06 09:59:22;;;;;;;2.03;1.00;;;20.20;76.70;;;;;;4992621;28;20456;-83
2022/07/06 10:01:54;;;;;;;1.00;0.90;;;20.20;76.70;;;;;;4992041;28;20475;-83
2022/07/06 10:04:20;;;;;;;1.00;0.90;;;20.10;77.00;;;;;;4993260;28;20518;-83
2022/07/06 10:06:46;;;;;;;1.00;0.90;;;20.10;77.70;;;;;;4995142;28;20432;-81
2022/07/06 10:09:14;;;;;;;1.00;0.90;;;20.10;78.00;;;;;;4997856;28;20766;-83
2022/07/06 10:11:49;;;;;;;1.00;0.90;;;20.10;78.30;;;;;;4996471;28;20420;-83
2022/07/06 10:14:18;;;;;;;1.10;1.07;;;20.10;77.80;;;;;;4995102;28;20420;-83
2022/07/06 10:16:46;;;;;;;1.53;1.10;;;20.10;78.10;;;;;;4995011;28;20423;-83
2022/07/06 10:19:13;;;;;;;1.00;0.90;;;20.20;78.40;;;;;;4995053;28;20782;-82
2022/07/06 10:21:39;;;;;;;0.90;0.80;;;20.30;77.60;;;;;;4995654;28;20880;-83
2022/07/06 10:24:07;;;;;;;1.00;0.90;;;20.40;77.30;;;;;;4991347;28;20772;-83
2022/07/06 10:26:34;;;;;;;0.90;0.80;;;20.40;76.60;;;;;;4983892;28;20417;-82
2022/07/06 10:29:04;;;;;;;0.90;0.80;;;20.50;76.60;;;;;;4993697;28;20449;-84
2022/07/06 10:31:30;;;;;;;0.80;0.80;;;20.70;76.10;;;;;;4996292;28;20938;-81
2022/07/06 10:33:58;;;;;;;1.00;0.90;;;20.80;75.40;;;;;;4995112;28;20511;-80
2022/07/06 10:36:24;;;;;;;0.70;0.70;;;21.00;76.10;;;;;;4995462;28;20427;-81
2022/07/06 10:38:52;;;;;;;0.90;0.90;;;21.20;76.00;;;;;;4994899;28;20962;-81
2022/07/06 10:41:19;;;;;;;1.00;0.90;;;21.20;74.10;;;;;;4994552;28;20428;-81
2022/07/06 10:43:46;;;;;;;0.83;0.77;;;21.20;73.70;;;;;;4994172;28;20433;-83
2022/07/06 10:46:14;;;;;;;0.70;0.70;;;21.10;73.40;;;;;;4992954;28;20464;-83
2022/07/06 10:48:40;;;;;;;0.90;0.80;;;21.20;74.70;;;;;;4993146;28;21014;-82
2022/07/06 10:51:08;;;;;;;1.30;1.07;;;21.30;73.60;;;;;;4993823;28;20432;-85
2022/07/06 10:53:36;;;;;;;0.80;0.80;;;21.30;74.20;;;;;;4994470;28;20425;-83
2022/07/06 10:56:07;;;;;;;0.90;0.80;;;21.20;72.70;;;;;;4992621;28;20432;-83
2022/07/06 10:58:48;;;;;;;0.90;0.80;;;21.00;73.40;;;;;;4995535;28;20452;-81
2022/07/06 11:01:15;;;;;;;0.70;0.70;;;21.00;73.90;;;;;;4993897;28;20480;-80
2022/07/06 11:03:49;;;;;;;0.90;0.80;;;21.10;74.40;;;;;;4992825;28;20480;-83
2022/07/06 11:06:18;;;;;;;0.70;0.70;;;21.30;72.80;;;;;;4992554;28;20473;-83
2022/07/06 11:09:03;;;;;;;1.03;0.93;;;21.40;73.20;;;;;;4994777;28;20441;-82
2022/07/06 11:11:31;;;;;;;1.00;0.90;;;21.40;72.60;;;;;;4995190;28;20417;-84
2022/07/06 11:14:06;;;;;;;0.93;0.83;;;21.40;71.50;;;;;;4995892;28;20409;-83
2022/07/06 11:17:01;;;;;;;0.90;0.80;;;21.40;72.60;;;;;;4995197;28;20475;-82
2022/07/06 11:19:27;;;;;;;1.00;0.90;;;21.40;72.00;;;;;;4990917;28;20420;-82
2022/07/06 11:21:58;;;;;;;0.90;0.80;;;21.40;71.20;;;;;;4992689;28;20425;-82
2022/07/06 11:24:29;;;;;;;1.00;0.90;;;21.30;72.80;;;;;;4992501;28;20457;-83
2022/07/06 11:26:56;;;;;;;1.20;0.90;;;21.40;71.90;;;;;;4992819;28;20424;-83
2022/07/06 11:29:24;;;;;;;0.90;0.80;;;21.50;72.30;;;;;;4992238;28;20421;-83
2022/07/06 11:31:52;;;;;;;0.90;0.80;;;21.60;72.40;;;;;;4980046;28;20493;-82
2022/07/06 11:34:24;;;;;;;1.13;1.00;;;21.60;71.00;;;;;;4979354;28;20634;-82
2022/07/06 11:36:55;;;;;;;1.07;0.97;;;21.60;71.60;;;;;;4991747;28;20425;-82
2022/07/06 11:39:21;;;;;;;0.90;0.80;;;21.70;71.50;;;;;;4992336;28;20425;-82
2022/07/06 11:41:46;;;;;;;0.70;0.70;;;21.80;72.40;;;;;;4992002;28;20451;-83
2022/07/06 11:44:12;;;;;;;0.97;0.87;;;21.90;71.80;;;;;;4992394;28;20188;-84
2022/07/06 11:46:37;;;;;;;1.00;0.90;;;21.90;70.00;;;;;;4992094;28;20186;-82
2022/07/06 11:49:08;;;;;;;1.00;0.90;;;21.70;70.90;;;;;;4991549;28;20202;-83
2022/07/06 11:51:37;;;;;;;0.87;0.80;;;21.60;71.50;;;;;;4991411;28;20243;-83
2022/07/06 11:54:12;;;;;;;0.83;0.77;;;21.60;72.10;;;;;;4992125;28;20456;-83
2022/07/06 11:56:45;;;;;;;0.70;0.70;;;21.70;71.40;;;;;;4991682;28;20423;-83
2022/07/06 11:59:10;;;;;;;0.90;0.80;;;21.70;71.00;;;;;;4991654;28;20448;-83
2022/07/06 12:01:41;;;;;;;1.00;0.90;;;21.80;70.80;;;;;;4992027;28;20854;-83
2022/07/06 12:04:07;;;;;;;1.00;0.90;;;21.90;70.40;;;;;;4992521;28;20691;-83
2022/07/06 12:06:33;;;;;;;0.80;0.80;;;21.90;70.00;;;;;;4991333;28;20445;-83
2022/07/06 12:09:03;;;;;;;0.93;0.83;;;21.80;70.20;;;;;;4991206;28;20429;-83
2022/07/06 12:11:31;;;;;;;1.03;0.97;;;21.70;70.70;;;;;;4991710;28;20515;-81
2022/07/06 12:14:01;;;;;;;0.70;0.70;;;21.70;70.60;;;;;;4995287;28;20416;-83
2022/07/06 12:16:30;;;;;;;0.80;0.80;;;21.80;70.80;;;;;;5009035;28;20466;-83
2022/07/06 12:18:56;;;;;;;1.00;0.90;;;22.00;70.30;;;;;;4990408;28;20471;-82
2022/07/06 12:21:22;;;;;;;0.70;0.70;;;22.00;69.80;;;;;;4997476;28;20416;-83
2022/07/06 12:23:50;;;;;;;1.53;1.43;;;22.10;70.30;;;;;;4994373;28;20181;-83
2022/07/06 12:26:18;;;;;;;2.13;1.97;;;22.20;71.10;;;;;;4996611;28;20205;-83
2022/07/06 12:28:44;;;;;;;0.70;0.70;;;22.30;69.70;;;;;;4993658;28;20437;-82
2022/07/06 12:31:10;;;;;;;0.90;0.80;;;22.30;71.50;;;;;;4982585;28;20417;-83
2022/07/06 12:33:36;;;;;;;1.10;0.80;;;22.40;71.70;;;;;;4995125;28;20421;-82
2022/07/06 12:36:15;;;;;;;0.97;0.87;;;22.70;70.60;;;;;;4997194;28;20420;-83
2022/07/06 12:38:48;;;;;;;0.93;0.87;;;23.10;70.70;;;;;;4991988;28;20455;-81
2022/07/06 12:41:25;;;;;;;0.90;0.80;;;23.30;69.40;;;;;;4985014;28;20417;-83
2022/07/06 12:44:09;;;;;;;0.83;0.73;;;23.20;67.50;;;;;;4991809;28;20421;-83
2022/07/06 12:46:39;;;;;;;1.47;0.70;;;23.00;68.30;;;;;;4991596;28;20456;-82
2022/07/06 12:49:22;;;;;;;0.97;0.87;;;22.70;69.20;;;;;;4992542;28;20974;-83
2022/07/06 12:51:57;;;;;;;0.90;0.80;;;22.60;68.50;;;;;;4992921;28;20473;-82
2022/07/06 12:54:25;;;;;;;0.70;0.70;;;22.70;68.70;;;;;;4981183;28;20423;-82